All Spectrum Aviation - Van Nuys Airport - KVNY

HOME

Condor Squadron KVNY Webcam

Visit our Electronics Store

Condor Squadron Webcam - Van Nuys Airport - KVNY
Picture taken: Wed, 26 Sep 2018 04:19:21 -0700
YouTube Channel!    Latest Timelapse Movie    Full Size Image    Regular Size Image    

2018/09/26 10:51 KVNY 261051Z AUTO 00000KT 8SM CLR 17/14 A2993 RMK AO2 SLP128 T01720144

HOME

Condor Squadron KVNY Webcam

Visit our Electronics Store